Time;durP1;ratioP1;P1;durP2;ratioP2;P2;SDS_P1;SDS_P2;PMS_P1;PMS_P2;Temp;Humidity;BMP_temperature;BMP_pressure;BME280_temperature;BME280_humidity;BME280_pressure;Samples;Min_cycle;Max_cycle;Signal;HPM_P1;HPM_P2
2023/07/20 00:00:34;;;;;;;2.53;1.67;;;23.00;1.00;;;;;;5237991;28;20233;-62
2023/07/20 00:03:22;;;;;;;2.05;1.70;;;23.00;1.00;;;;;;5204760;28;20041;-62
2023/07/20 00:05:59;;;;;;;3.10;1.70;;;23.00;1.00;;;;;;5206868;28;20039;-65
2023/07/20 00:08:30;;;;;;;3.45;1.77;;;22.90;1.00;;;;;;5190973;28;20033;-61
2023/07/20 00:11:02;;;;;;;2.47;1.80;;;22.90;1.00;;;;;;5190143;28;20041;-63
2023/07/20 00:13:37;;;;;;;3.05;2.13;;;22.90;1.00;;;;;;5189992;28;20048;-64
2023/07/20 00:16:12;;;;;;;2.58;1.63;;;22.80;1.00;;;;;;5205048;28;20033;-64
2023/07/20 00:18:45;;;;;;;;;;;22.90;1.00;;;;;;5236581;28;20338;-62
2023/07/20 00:21:22;;;;;;;2.92;2.13;;;22.90;1.00;;;;;;5206006;28;19900;-65
2023/07/20 00:23:57;;;;;;;3.03;2.00;;;23.10;1.00;;;;;;5206479;28;20507;-61
2023/07/20 00:26:31;;;;;;;2.90;2.10;;;23.30;1.00;;;;;;5206143;28;20047;-62
2023/07/20 00:29:03;;;;;;;2.05;1.70;;;23.30;1.00;;;;;;5206345;28;20045;-65
2023/07/20 00:31:36;;;;;;;2.92;2.03;;;23.20;1.00;;;;;;5222389;28;20059;-64
2023/07/20 00:34:08;;;;;;;3.25;2.10;;;23.20;1.00;;;;;;5190255;28;20047;-62
2023/07/20 00:36:42;;;;;;;4.90;2.10;;;23.20;1.00;;;;;;5240064;28;20031;-64
2023/07/20 00:39:16;;;;;;;2.95;1.90;;;23.20;1.00;;;;;;5222676;28;20037;-65
2023/07/20 00:41:47;;;;;;;3.22;2.10;;;23.20;1.00;;;;;;5189854;28;20046;-64
2023/07/20 00:44:19;;;;;;;2.60;1.70;;;23.10;1.00;;;;;;5223029;28;20033;-61
2023/07/20 00:46:52;;;;;;;2.25;1.90;;;23.10;13.40;;;;;;5205863;28;20036;-63
2023/07/20 00:49:24;;;;;;;2.93;1.90;;;23.00;43.80;;;;;;5189840;28;20424;-64
2023/07/20 00:51:56;;;;;;;2.80;1.92;;;23.00;42.40;;;;;;5222484;28;20268;-65
2023/07/20 00:54:36;;;;;;;3.15;2.13;;;23.00;25.50;;;;;;5189561;28;20037;-64
2023/07/20 00:57:14;;;;;;;2.75;1.85;;;22.90;52.70;;;;;;5205936;28;20032;-62
2023/07/20 00:59:48;;;;;;;2.88;2.10;;;22.90;99.60;;;;;;5207769;28;20398;-64
2023/07/20 01:02:19;;;;;;;2.28;1.80;;;23.00;47.10;;;;;;5345660;22;20073;-64
2023/07/20 01:04:53;;;;;;;2.75;1.98;;;23.10;47.10;;;;;;5117927;28;20047;-65
2023/07/20 01:08:11;;;;;;;3.58;2.08;;;23.10;28.00;;;;;;5133675;28;20046;-63
2023/07/20 01:11:03;;;;;;;3.75;1.70;;;23.20;1.00;;;;;;5118181;29;20308;-63
2023/07/20 01:13:37;;;;;;;2.15;1.95;;;23.20;1.00;;;;;;5191852;28;20031;-63
2023/07/20 01:16:11;;;;;;;2.40;1.80;;;23.30;1.00;;;;;;5111383;29;20212;-66
2023/07/20 01:18:42;;;;;;;2.55;1.52;;;23.20;1.00;;;;;;5125553;28;20238;-65
2023/07/20 01:21:21;;;;;;;2.45;1.67;;;23.20;1.00;;;;;;5119515;28;20027;-65
2023/07/20 01:24:01;;;;;;;2.13;1.77;;;23.20;1.00;;;;;;5180254;28;20051;-66
2023/07/20 01:27:16;;;;;;;3.53;1.80;;;23.20;1.00;;;;;;5198742;28;20355;-60
2023/07/20 01:30:06;;;;;;;3.63;1.98;;;23.20;1.00;;;;;;5118683;28;20436;-66
2023/07/20 01:32:45;;;;;;;2.22;1.52;;;23.20;1.00;;;;;;5133569;28;20039;-65
2023/07/20 01:35:21;;;;;;;2.75;1.98;;;23.10;1.00;;;;;;5115134;29;20043;-61
2023/07/20 01:37:57;;;;;;;2.38;1.90;;;23.00;1.00;;;;;;5150050;28;20035;-62
2023/07/20 01:40:29;;;;;;;3.35;1.60;;;22.90;1.00;;;;;;5132300;28;20035;-64
2023/07/20 01:43:03;;;;;;;2.30;1.52;;;22.80;1.00;;;;;;5149111;28;20331;-65
2023/07/20 01:45:37;;;;;;;4.63;1.90;;;22.70;12.60;;;;;;5145972;28;20043;-63
2023/07/20 01:48:09;;;;;;;2.97;1.85;;;22.70;72.30;;;;;;5101634;29;20042;-64
2023/07/20 01:50:43;;;;;;;5.43;2.05;;;22.60;91.10;;;;;;5129049;28;20037;-61
2023/07/20 01:53:20;;;;;;;5.50;2.13;;;22.60;84.80;;;;;;5114531;28;20023;-65
2023/07/20 01:56:00;;;;;;;3.20;1.83;;;22.50;72.60;;;;;;5119944;28;20035;-65
2023/07/20 01:58:32;;;;;;;3.38;2.25;;;22.50;68.60;;;;;;5206459;28;20312;-65
2023/07/20 02:01:03;;;;;;;2.50;2.17;;;22.30;99.90;;;;;;5161625;28;20043;-64
2023/07/20 02:03:36;;;;;;;2.35;1.70;;;22.20;99.90;;;;;;5096473;28;20233;-64
2023/07/20 02:06:11;;;;;;;3.22;1.70;;;22.10;99.90;;;;;;5118139;29;20034;-63
2023/07/20 02:08:48;;;;;;;3.30;2.00;;;22.10;99.90;;;;;;5102633;28;20271;-65
2023/07/20 02:11:22;;;;;;;4.95;1.85;;;22.10;99.90;;;;;;5119479;28;20039;-63
2023/07/20 02:13:54;;;;;;;4.38;2.65;;;22.20;99.90;;;;;;5120973;28;20027;-65
2023/07/20 02:16:28;;;;;;;2.55;1.95;;;22.20;99.90;;;;;;5114422;28;20347;-64
2023/07/20 02:19:00;;;;;;;2.92;1.75;;;22.20;99.90;;;;;;5183578;28;20031;-65
2023/07/20 02:21:31;;;;;;;2.30;1.65;;;22.10;99.90;;;;;;5123927;28;20220;-62
2023/07/20 02:24:06;;;;;;;2.85;2.13;;;22.00;99.90;;;;;;5138398;28;20039;-64
2023/07/20 02:26:41;;;;;;;4.32;2.00;;;22.00;99.90;;;;;;5136840;28;20227;-65
2023/07/20 02:29:12;;;;;;;2.58;1.98;;;22.00;99.90;;;;;;5136969;28;20034;-64
2023/07/20 02:31:49;;;;;;;2.75;1.60;;;22.00;99.90;;;;;;5149973;28;20019;-63
2023/07/20 02:34:26;;;;;;;2.08;1.88;;;22.00;99.90;;;;;;5136631;28;20041;-63
2023/07/20 02:37:01;;;;;;;3.03;1.83;;;21.90;99.90;;;;;;5137423;28;20041;-64
2023/07/20 02:39:34;;;;;;;;;;;22.00;99.90;;;;;;5138530;28;20023;-63
2023/07/20 02:42:06;;;;;;;2.28;1.70;;;21.90;99.90;;;;;;5136462;28;19910;-64
2023/07/20 02:44:39;;;;;;;2.92;1.52;;;21.90;99.90;;;;;;5121108;28;20038;-65
2023/07/20 02:47:11;;;;;;;3.60;2.00;;;22.00;99.90;;;;;;5117975;28;20635;-63
2023/07/20 02:49:45;;;;;;;;;;;21.90;99.90;;;;;;5137506;28;20031;-62
2023/07/20 02:52:16;;;;;;;2.55;1.90;;;22.00;99.90;;;;;;5137040;28;20090;-63
2023/07/20 02:54:47;;;;;;;3.33;1.80;;;21.90;99.90;;;;;;5183438;28;20029;-67
2023/07/20 02:57:19;;;;;;;3.92;2.20;;;21.90;99.90;;;;;;5136366;28;20031;-63
2023/07/20 03:00:03;;;;;;;1.98;1.73;;;21.80;99.90;;;;;;5149572;28;20297;-66
2023/07/20 03:02:35;;;;;;;;;;;21.80;99.90;;;;;;5135758;28;20239;-61
2023/07/20 03:05:07;;;;;;;2.65;2.03;;;21.80;99.90;;;;;;5137066;28;19924;-64
2023/07/20 03:07:43;;;;;;;4.20;1.45;;;21.80;99.90;;;;;;5120227;28;20034;-66
2023/07/20 03:10:14;;;;;;;2.92;1.58;;;21.80;99.90;;;;;;5219190;28;20407;-63
2023/07/20 03:12:47;;;;;;;2.38;1.63;;;21.80;99.90;;;;;;5204164;28;20051;-63
2023/07/20 03:15:18;;;;;;;1.95;1.60;;;21.80;99.90;;;;;;5200290;28;20045;-65
2023/07/20 03:17:51;;;;;;;1.92;1.50;;;21.70;99.90;;;;;;5175034;28;20541;-62
2023/07/20 03:20:22;;;;;;;3.10;1.90;;;21.70;99.90;;;;;;5147699;28;20018;-66
2023/07/20 03:22:54;;;;;;;2.50;1.67;;;21.70;99.90;;;;;;5126542;28;20262;-65
2023/07/20 03:25:25;;;;;;;2.92;1.52;;;21.60;99.90;;;;;;5117767;28;20054;-61
2023/07/20 03:27:58;;;;;;;1.67;1.40;;;21.60;99.90;;;;;;5133847;28;20039;-65
2023/07/20 03:30:29;;;;;;;3.92;1.65;;;21.60;99.90;;;;;;5147327;28;20037;-64
2023/07/20 03:33:03;;;;;;;2.65;1.63;;;21.60;99.90;;;;;;5135816;28;20045;-64
2023/07/20 03:35:37;;;;;;;3.08;1.75;;;21.70;99.90;;;;;;5089576;28;20041;-60
2023/07/20 03:38:12;;;;;;;2.30;1.88;;;21.70;99.90;;;;;;5121071;28;20035;-62
2023/07/20 03:40:57;;;;;;;3.30;2.00;;;21.70;1.00;;;;;;5121005;28;20352;-63
2023/07/20 03:43:31;;;;;;;2.78;1.58;;;21.70;1.00;;;;;;5137366;28;20023;-64
2023/07/20 03:46:08;;;;;;;3.10;1.77;;;21.80;1.00;;;;;;5113537;28;20225;-64
2023/07/20 03:48:42;;;;;;;3.35;2.05;;;21.80;1.00;;;;;;5151739;28;20166;-65
2023/07/20 03:51:19;;;;;;;3.28;2.03;;;21.80;1.00;;;;;;5147731;28;20039;-64
2023/07/20 03:53:51;;;;;;;2.75;1.40;;;21.80;1.00;;;;;;5137193;28;20038;-67
2023/07/20 03:56:34;;;;;;;2.63;1.80;;;21.80;1.00;;;;;;5118799;28;20051;-62
2023/07/20 03:59:10;;;;;;;3.38;1.80;;;21.80;1.00;;;;;;5116481;28;20281;-63
2023/07/20 04:01:44;;;;;;;3.40;1.70;;;21.90;1.00;;;;;;5121819;28;20214;-65
2023/07/20 04:04:24;;;;;;;2.43;1.83;;;22.00;1.00;;;;;;5113628;28;20047;-65
2023/07/20 04:07:01;;;;;;;4.85;1.88;;;22.00;4.30;;;;;;5130253;28;20251;-64
2023/07/20 04:09:34;;;;;;;1.83;1.73;;;22.00;99.90;;;;;;5114478;29;20050;-63
2023/07/20 04:12:11;;;;;;;4.63;1.65;;;22.00;99.90;;;;;;5114946;28;20151;-65
2023/07/20 04:14:42;;;;;;;2.33;1.60;;;22.00;99.90;;;;;;5115325;28;20054;-65
2023/07/20 04:17:25;;;;;;;2.25;1.73;;;22.00;99.90;;;;;;5143680;28;20026;-62
2023/07/20 04:19:56;;;;;;;2.70;1.77;;;22.00;99.90;;;;;;5151842;28;20031;-67
2023/07/20 04:22:28;;;;;;;4.07;1.55;;;22.00;99.90;;;;;;5134631;28;20231;-63
2023/07/20 04:25:14;;;;;;;3.45;1.77;;;22.00;1.00;;;;;;5131062;28;20364;-62
2023/07/20 04:27:47;;;;;;;2.45;1.75;;;21.90;1.00;;;;;;5106662;29;20237;-65
2023/07/20 04:30:23;;;;;;;2.13;1.60;;;22.00;1.00;;;;;;5110220;28;20324;-67
2023/07/20 04:32:54;;;;;;;3.03;2.05;;;21.90;1.00;;;;;;5133329;28;20030;-62
2023/07/20 04:35:56;;;;;;;2.42;1.60;;;21.90;1.00;;;;;;5118480;28;20043;-67
2023/07/20 04:38:30;;;;;;;2.65;1.90;;;21.80;1.00;;;;;;5153691;28;20379;-61
2023/07/20 04:41:07;;;;;;;2.42;1.73;;;21.80;98.60;;;;;;5154094;28;20031;-64
2023/07/20 04:43:45;;;;;;;2.42;1.77;;;21.90;99.90;;;;;;5121175;28;20049;-67
2023/07/20 04:46:19;;;;;;;2.80;1.95;;;22.00;99.90;;;;;;5218470;28;20493;-63
2023/07/20 04:48:53;;;;;;;2.65;1.83;;;22.10;99.90;;;;;;5221531;28;20340;-60
2023/07/20 04:51:30;;;;;;;3.00;2.15;;;22.00;99.90;;;;;;5138127;28;20023;-61
2023/07/20 04:54:04;;;;;;;2.38;2.00;;;22.10;99.90;;;;;;5122227;28;20342;-61
2023/07/20 04:56:35;;;;;;;2.75;1.63;;;22.20;99.90;;;;;;5137992;28;20038;-63
2023/07/20 04:59:06;;;;;;;2.35;1.70;;;22.20;99.90;;;;;;5153265;28;20042;-61
2023/07/20 05:01:38;;;;;;;2.40;1.85;;;22.20;99.90;;;;;;5139022;28;20188;-67
2023/07/20 05:04:11;;;;;;;2.40;1.70;;;22.20;99.90;;;;;;5120589;28;20050;-62
2023/07/20 05:06:45;;;;;;;3.38;2.03;;;22.20;99.90;;;;;;5122257;28;20035;-62
2023/07/20 05:09:20;;;;;;;1.83;1.42;;;22.10;1.00;;;;;;5137686;28;20295;-61
2023/07/20 05:11:54;;;;;;;2.47;1.90;;;22.20;1.00;;;;;;5122454;28;20230;-64
2023/07/20 05:14:28;;;;;;;1.75;1.58;;;22.30;1.00;;;;;;5153908;28;20035;-62
2023/07/20 05:17:02;;;;;;;3.55;2.30;;;22.40;99.90;;;;;;5133285;28;20351;-62
2023/07/20 05:19:33;;;;;;;2.20;1.85;;;22.40;99.90;;;;;;5119980;28;20283;-65
2023/07/20 05:22:05;;;;;;;2.78;1.90;;;22.40;99.90;;;;;;5153262;28;20035;-63
2023/07/20 05:24:38;;;;;;;2.10;1.55;;;22.50;99.90;;;;;;5121729;28;20053;-63
2023/07/20 05:27:10;;;;;;;2.38;1.60;;;22.50;99.90;;;;;;5203843;28;20037;-64
2023/07/20 05:29:51;;;;;;;3.20;1.80;;;22.50;99.90;;;;;;5120679;28;20040;-65
2023/07/20 05:32:25;;;;;;;3.88;1.77;;;22.70;90.50;;;;;;5121879;28;20355;-63
2023/07/20 05:34:57;;;;;;;2.42;1.50;;;22.80;1.00;;;;;;5127625;28;20039;-65
2023/07/20 05:37:30;;;;;;;1.73;1.63;;;23.00;1.00;;;;;;5135471;28;20039;-63
2023/07/20 05:40:04;;;;;;;3.67;2.08;;;23.00;1.00;;;;;;5116958;29;20303;-61
2023/07/20 05:42:35;;;;;;;5.63;1.88;;;23.10;1.00;;;;;;5115133;28;20064;-66
2023/07/20 05:45:07;;;;;;;2.22;1.58;;;23.30;1.00;;;;;;5118799;28;20059;-66
2023/07/20 05:47:42;;;;;;;1.98;1.70;;;23.20;99.90;;;;;;5102069;28;20031;-64
2023/07/20 05:50:16;;;;;;;3.78;1.58;;;23.10;1.00;;;;;;5117295;28;20342;-66
2023/07/20 05:52:52;;;;;;;;;;;23.00;99.90;;;;;;5102217;29;20035;-65
2023/07/20 05:55:26;;;;;;;2.97;1.58;;;22.90;1.00;;;;;;5213577;28;19906;-64
2023/07/20 05:57:57;;;;;;;;;;;23.00;1.00;;;;;;5131490;28;20027;-64
2023/07/20 06:00:31;;;;;;;6.63;2.42;;;23.10;1.00;;;;;;5133759;28;19902;-64
2023/07/20 06:03:03;;;;;;;2.72;2.20;;;23.40;99.90;;;;;;5116119;28;20342;-61
2023/07/20 06:05:34;;;;;;;3.45;1.73;;;23.20;99.90;;;;;;5116754;29;20198;-63
2023/07/20 06:08:06;;;;;;;2.05;1.60;;;23.10;99.90;;;;;;5124598;28;20061;-63
2023/07/20 06:10:37;;;;;;;3.63;1.40;;;22.80;99.90;;;;;;5130834;28;20196;-63
2023/07/20 06:13:11;;;;;;;2.42;1.80;;;22.80;1.00;;;;;;5103897;28;20031;-63
2023/07/20 06:15:47;;;;;;;2.38;1.55;;;22.70;1.00;;;;;;5112734;29;20042;-62
2023/07/20 06:18:18;;;;;;;3.17;2.28;;;22.90;1.00;;;;;;5102233;28;20027;-63
2023/07/20 06:20:53;;;;;;;1.83;1.45;;;23.10;1.00;;;;;;5125392;28;20041;-66
2023/07/20 06:23:26;;;;;;;3.28;1.50;;;23.20;99.90;;;;;;5136326;28;20188;-63
2023/07/20 06:25:58;;;;;;;2.70;1.80;;;23.00;1.00;;;;;;5111142;28;20061;-64
2023/07/20 06:28:37;;;;;;;2.63;1.63;;;23.00;1.00;;;;;;5150657;28;20034;-62
2023/07/20 06:31:13;;;;;;;3.28;1.60;;;23.20;1.00;;;;;;5135338;28;20030;-62
2023/07/20 06:33:49;;;;;;;3.95;2.05;;;23.60;1.00;;;;;;5119492;28;20345;-62
2023/07/20 06:36:25;;;;;;;4.03;2.25;;;23.60;99.90;;;;;;5136964;28;20042;-62
2023/07/20 06:39:02;;;;;;;2.65;1.85;;;23.60;99.90;;;;;;5106501;28;20492;-62
2023/07/20 06:41:33;;;;;;;3.58;1.77;;;23.70;99.90;;;;;;5137942;28;20025;-64
2023/07/20 06:44:08;;;;;;;3.30;1.95;;;23.70;99.90;;;;;;5135966;28;20345;-60
2023/07/20 06:46:40;;;;;;;2.20;1.90;;;24.10;99.90;;;;;;5100476;29;20044;-60
2023/07/20 06:49:30;;;;;;;2.58;1.77;;;24.00;99.90;;;;;;5182951;28;20035;-65
2023/07/20 06:52:02;;;;;;;1.90;1.45;;;23.90;99.90;;;;;;5116727;29;20069;-61
2023/07/20 06:54:38;;;;;;;1.90;1.33;;;24.00;99.90;;;;;;5118017;28;20215;-61
2023/07/20 06:57:12;;;;;;;3.25;1.75;;;24.00;99.90;;;;;;5123201;28;20035;-63
2023/07/20 06:59:49;;;;;;;3.22;1.60;;;24.20;99.90;;;;;;5104766;28;20038;-64
2023/07/20 07:02:20;;;;;;;3.53;1.60;;;24.40;99.90;;;;;;5112221;28;20069;-65
2023/07/20 07:04:54;;;;;;;4.80;1.90;;;24.50;99.90;;;;;;5100001;29;20049;-60
2023/07/20 07:07:31;;;;;;;2.33;1.75;;;24.60;99.90;;;;;;5116340;28;20264;-62
2023/07/20 07:10:05;;;;;;;2.97;1.80;;;24.90;99.90;;;;;;5099823;29;20045;-63
2023/07/20 07:12:38;;;;;;;2.93;1.80;;;25.10;99.90;;;;;;5099315;29;20035;-59
2023/07/20 07:15:13;;;;;;;1.73;1.38;;;25.00;41.70;;;;;;5113048;28;20049;-64
2023/07/20 07:17:44;;;;;;;1.83;1.70;;;24.70;75.70;;;;;;5115342;28;20255;-61
2023/07/20 07:20:15;;;;;;;2.75;2.03;;;24.70;76.00;;;;;;5115379;29;20039;-63
2023/07/20 07:22:50;;;;;;;1.73;1.58;;;24.80;60.40;;;;;;5132126;28;20340;-63
2023/07/20 07:25:26;;;;;;;1.92;1.60;;;25.00;30.00;;;;;;5116205;28;20031;-62
2023/07/20 07:28:01;;;;;;;2.10;1.75;;;25.20;1.00;;;;;;5112776;28;20494;-66
2023/07/20 07:30:36;;;;;;;3.35;1.75;;;24.90;1.00;;;;;;5117324;28;20039;-62
2023/07/20 07:33:08;;;;;;;3.72;1.85;;;24.80;3.60;;;;;;5134773;28;20065;-62
2023/07/20 07:35:39;;;;;;;2.80;1.55;;;24.90;1.00;;;;;;5117244;28;20034;-64
2023/07/20 07:38:19;;;;;;;2.50;1.70;;;25.00;1.00;;;;;;5119115;28;20346;-64
2023/07/20 07:40:54;;;;;;;2.80;1.67;;;24.90;1.00;;;;;;5199646;28;20291;-63
2023/07/20 07:43:28;;;;;;;1.65;1.52;;;25.30;1.00;;;;;;5116944;28;20459;-63
2023/07/20 07:46:05;;;;;;;2.53;1.92;;;25.50;1.00;;;;;;5129889;28;20054;-60
2023/07/20 07:48:44;;;;;;;4.43;1.92;;;25.30;1.00;;;;;;5119016;28;20314;-62
2023/07/20 07:51:18;;;;;;;2.78;1.95;;;25.00;1.00;;;;;;5135610;28;20065;-65
2023/07/20 07:53:57;;;;;;;1.50;1.38;;;25.20;1.00;;;;;;5099462;29;20118;-62
2023/07/20 07:56:35;;;;;;;2.85;1.63;;;25.00;1.00;;;;;;5118529;28;20208;-64
2023/07/20 07:59:09;;;;;;;2.17;1.50;;;24.80;1.00;;;;;;5136084;28;20049;-63
2023/07/20 08:01:45;;;;;;;4.10;2.10;;;25.00;1.00;;;;;;5115019;28;20045;-62
2023/07/20 08:04:16;;;;;;;2.70;1.60;;;25.00;1.00;;;;;;5133698;28;20046;-63
2023/07/20 08:06:53;;;;;;;;;;;25.20;1.00;;;;;;5130057;28;20027;-63
2023/07/20 08:09:25;;;;;;;3.33;1.73;;;25.50;1.00;;;;;;5115099;29;19911;-65
2023/07/20 08:11:59;;;;;;;2.40;2.15;;;25.90;1.00;;;;;;5116522;28;20045;-64
2023/07/20 08:14:33;;;;;;;2.00;1.73;;;25.70;1.00;;;;;;5195252;28;20374;-63
2023/07/20 08:17:04;;;;;;;1.48;1.15;;;26.20;1.00;;;;;;5129573;28;20037;-63
2023/07/20 08:19:42;;;;;;;2.70;1.65;;;26.60;1.00;;;;;;5120410;28;20050;-63
2023/07/20 08:22:16;;;;;;;3.75;1.60;;;26.60;1.00;;;;;;5118521;29;20062;-65
2023/07/20 08:24:48;;;;;;;2.13;1.63;;;26.10;1.00;;;;;;5103315;28;20047;-64
2023/07/20 08:27:21;;;;;;;3.20;1.35;;;25.90;1.00;;;;;;5131332;28;20226;-63
2023/07/20 08:29:56;;;;;;;;;;;26.00;1.00;;;;;;5141521;28;20056;-62
2023/07/20 08:32:27;;;;;;;3.25;1.70;;;26.00;1.00;;;;;;5114503;28;19902;-65
2023/07/20 08:34:59;;;;;;;2.30;1.73;;;26.10;1.00;;;;;;5117155;29;20049;-62
2023/07/20 08:37:36;;;;;;;1.55;1.40;;;26.50;1.00;;;;;;5135743;28;20347;-63
2023/07/20 08:40:09;;;;;;;1.60;1.23;;;26.70;99.90;;;;;;5137929;28;20308;-63
2023/07/20 08:42:44;;;;;;;1.45;1.35;;;27.00;99.90;;;;;;5120294;28;20405;-65
2023/07/20 08:45:22;;;;;;;2.50;1.75;;;27.20;99.90;;;;;;5134092;28;20046;-63
2023/07/20 08:47:56;;;;;;;1.95;1.45;;;27.10;99.90;;;;;;5138193;28;20041;-64
2023/07/20 08:50:30;;;;;;;1.77;1.50;;;27.00;99.90;;;;;;5138916;28;20176;-65
2023/07/20 08:53:05;;;;;;;1.83;1.52;;;27.10;99.90;;;;;;5122003;28;20348;-63
2023/07/20 08:55:40;;;;;;;2.15;1.73;;;27.20;99.90;;;;;;5122713;28;20034;-62
2023/07/20 08:58:14;;;;;;;1.50;1.40;;;27.10;99.90;;;;;;5121149;28;20038;-64
2023/07/20 09:00:51;;;;;;;1.95;1.73;;;26.80;99.90;;;;;;5136403;28;20170;-63
2023/07/20 09:03:25;;;;;;;1.55;1.25;;;27.00;99.90;;;;;;5118753;28;20079;-64
2023/07/20 09:06:05;;;;;;;1.95;1.40;;;27.30;99.90;;;;;;5118943;28;20232;-64
2023/07/20 09:08:40;;;;;;;1.33;1.10;;;27.60;99.90;;;;;;5137187;28;20030;-62
2023/07/20 09:11:15;;;;;;;2.28;1.30;;;27.80;99.90;;;;;;5137845;28;20039;-61
2023/07/20 09:13:49;;;;;;;3.35;1.40;;;27.50;99.90;;;;;;5137910;28;20065;-59
2023/07/20 09:16:24;;;;;;;4.82;1.48;;;27.60;99.90;;;;;;5134585;28;20177;-63
2023/07/20 09:18:58;;;;;;;1.42;1.25;;;28.10;99.90;;;;;;5138930;28;20039;-62
2023/07/20 09:21:35;;;;;;;1.30;1.08;;;27.90;99.90;;;;;;5137354;28;20296;-61
2023/07/20 09:24:10;;;;;;;1.23;1.10;;;27.90;99.90;;;;;;5118676;29;20019;-65
2023/07/20 09:26:48;;;;;;;1.00;0.95;;;28.40;93.50;;;;;;5175862;28;20051;-64
2023/07/20 09:29:22;;;;;;;1.85;1.40;;;28.30;19.80;;;;;;5121084;28;20049;-63
2023/07/20 09:32:08;;;;;;;1.52;1.20;;;28.10;22.50;;;;;;5131784;28;20208;-63
2023/07/20 09:34:46;;;;;;;1.98;1.50;;;28.20;1.00;;;;;;5133688;28;20244;-60
2023/07/20 09:37:24;;;;;;;1.42;1.10;;;28.10;1.00;;;;;;5137363;28;20039;-68
2023/07/20 09:39:58;;;;;;;1.48;1.15;;;27.70;14.00;;;;;;5121839;28;20037;-61
2023/07/20 09:42:32;;;;;;;2.72;1.48;;;27.80;1.00;;;;;;5138661;28;20035;-63
2023/07/20 09:45:06;;;;;;;1.73;1.50;;;27.80;9.40;;;;;;5137340;28;20039;-63
2023/07/20 09:47:39;;;;;;;1.48;1.20;;;27.90;26.50;;;;;;5138370;28;20022;-60
2023/07/20 09:50:10;;;;;;;1.60;1.20;;;27.90;69.20;;;;;;5144827;28;20026;-61
2023/07/20 09:52:46;;;;;;;1.58;1.20;;;28.30;1.00;;;;;;5131798;28;20042;-62
2023/07/20 09:55:21;;;;;;;1.70;1.40;;;28.40;40.40;;;;;;5151240;28;20465;-60
2023/07/20 09:57:55;;;;;;;1.20;1.10;;;28.10;1.00;;;;;;5130819;28;20039;-61
2023/07/20 10:00:29;;;;;;;1.40;1.30;;;28.10;12.90;;;;;;5133613;28;20042;-62
2023/07/20 10:03:03;;;;;;;;;;;28.40;47.00;;;;;;5120271;28;20043;-65
2023/07/20 10:05:38;;;;;;;1.45;1.30;;;28.80;20.30;;;;;;5117125;29;19918;-60
2023/07/20 10:08:12;;;;;;;1.73;1.20;;;29.20;15.00;;;;;;5117137;29;20039;-61
2023/07/20 10:10:47;;;;;;;1.30;1.05;;;29.20;1.00;;;;;;5119331;28;20047;-60
2023/07/20 10:13:25;;;;;;;2.37;1.63;;;29.10;1.00;;;;;;5126772;28;20022;-61
2023/07/20 10:16:06;;;;;;;1.33;1.10;;;28.60;1.00;;;;;;5135157;28;20361;-61
2023/07/20 10:18:57;;;;;;;1.13;0.98;;;28.00;1.00;;;;;;5136644;28;20048;-60
2023/07/20 10:21:34;;;;;;;1.50;1.20;;;28.60;1.00;;;;;;5152724;28;20211;-62
2023/07/20 10:24:15;;;;;;;3.42;1.52;;;29.20;1.00;;;;;;5149958;28;20031;-62
2023/07/20 10:26:48;;;;;;;1.63;0.95;;;29.60;1.00;;;;;;5138359;28;20204;-61
2023/07/20 10:29:25;;;;;;;1.50;1.38;;;29.80;1.00;;;;;;5136951;28;20039;-61
2023/07/20 10:32:04;;;;;;;2.97;1.38;;;29.30;1.00;;;;;;5126354;28;20212;-61
2023/07/20 10:34:38;;;;;;;2.15;1.17;;;28.90;1.00;;;;;;5101912;28;20043;-64
2023/07/20 10:37:49;;;;;;;1.90;1.55;;;28.90;1.00;;;;;;5117049;29;20495;-63
2023/07/20 10:40:39;;;;;;;1.38;1.27;;;29.40;1.00;;;;;;5100810;29;20041;-60
2023/07/20 10:43:11;;;;;;;1.70;1.27;;;28.90;1.00;;;;;;5102091;28;20286;-63
2023/07/20 10:45:52;;;;;;;3.67;2.00;;;28.80;1.00;;;;;;5113486;28;20031;-61
2023/07/20 10:48:27;;;;;;;1.45;1.10;;;28.70;1.00;;;;;;5117384;28;20038;-61
2023/07/20 10:51:21;;;;;;;1.27;1.17;;;29.60;1.00;;;;;;5136573;28;20037;-61
2023/07/20 10:53:58;;;;;;;1.20;1.10;;;30.70;1.00;;;;;;5136893;28;20045;-61
2023/07/20 10:56:32;;;;;;;1.80;1.35;;;30.10;1.00;;;;;;5136583;28;20034;-62
2023/07/20 10:59:19;;;;;;;;;;;29.80;1.00;;;;;;5140056;28;20047;-62
2023/07/20 11:02:03;;;;;;;1.60;1.13;;;29.80;1.00;;;;;;5113164;29;19911;-64
2023/07/20 11:04:42;;;;;;;2.17;1.10;;;30.60;1.00;;;;;;5118077;29;20035;-60
2023/07/20 11:07:17;;;;;;;1.77;1.13;;;30.50;1.00;;;;;;5128124;28;20065;-60
2023/07/20 11:09:52;;;;;;;4.22;1.08;;;30.00;1.00;;;;;;5153495;28;20045;-61
2023/07/20 11:12:23;;;;;;;1.75;1.10;;;29.90;1.00;;;;;;5119578;28;20231;-62
2023/07/20 11:14:59;;;;;;;1.40;1.25;;;29.80;1.00;;;;;;5137618;28;20038;-60
2023/07/20 11:17:35;;;;;;;2.45;1.40;;;29.30;1.00;;;;;;5134111;28;20057;-62
2023/07/20 11:20:12;;;;;;;1.92;1.20;;;28.80;1.00;;;;;;5151932;28;20050;-62
2023/07/20 11:22:47;;;;;;;1.13;1.02;;;29.40;1.00;;;;;;5137056;28;20185;-61
2023/07/20 11:25:24;;;;;;;2.05;1.38;;;29.60;1.00;;;;;;5118071;28;20038;-61
2023/07/20 11:27:56;;;;;;;2.17;1.17;;;30.30;1.00;;;;;;5119076;28;20053;-61
2023/07/20 11:30:36;;;;;;;2.13;1.40;;;31.20;1.00;;;;;;5147547;28;20030;-59
2023/07/20 11:33:10;;;;;;;1.40;1.17;;;31.30;1.00;;;;;;5119594;28;20043;-60
2023/07/20 11:35:48;;;;;;;3.40;1.20;;;31.10;1.00;;;;;;5137906;28;20049;-62
2023/07/20 11:38:25;;;;;;;1.67;1.48;;;29.80;1.00;;;;;;5136998;28;20019;-59
2023/07/20 11:41:01;;;;;;;1.80;1.05;;;29.20;1.00;;;;;;5119717;28;20030;-62
2023/07/20 11:43:33;;;;;;;2.13;1.25;;;30.00;1.00;;;;;;5148723;28;20053;-59
2023/07/20 11:46:05;;;;;;;1.27;1.17;;;30.10;1.00;;;;;;5134290;28;20041;-61
2023/07/20 11:48:37;;;;;;;1.15;1.05;;;29.80;1.00;;;;;;5123666;28;20117;-62
2023/07/20 11:51:16;;;;;;;0.95;0.95;;;30.80;1.00;;;;;;5122799;28;20023;-59
2023/07/20 11:53:50;;;;;;;1.20;1.10;;;30.90;1.00;;;;;;5145348;28;20310;-59
2023/07/20 11:56:30;;;;;;;1.30;1.02;;;30.70;1.00;;;;;;5123418;28;20532;-60
2023/07/20 11:59:06;;;;;;;2.80;0.90;;;31.70;1.00;;;;;;5137598;28;20015;-58
2023/07/20 12:01:45;;;;;;;1.15;1.10;;;31.40;1.00;;;;;;5115792;29;20046;-62
2023/07/20 12:04:23;;;;;;;1.60;1.30;;;32.20;1.00;;;;;;5103386;29;20353;-58
2023/07/20 12:06:58;;;;;;;1.50;1.00;;;32.10;1.00;;;;;;5123714;28;20261;-60
2023/07/20 12:09:32;;;;;;;1.10;1.00;;;31.90;1.00;;;;;;5136620;28;20051;-61
2023/07/20 12:12:12;;;;;;;1.17;1.05;;;31.80;1.00;;;;;;5170094;28;20208;-58
2023/07/20 12:14:45;;;;;;;1.23;1.13;;;31.50;1.00;;;;;;5119771;28;20280;-58
2023/07/20 12:17:17;;;;;;;1.92;1.20;;;32.40;1.00;;;;;;5119298;28;20150;-64
2023/07/20 12:19:48;;;;;;;2.75;1.20;;;31.60;1.00;;;;;;5118845;29;20035;-60
2023/07/20 12:22:22;;;;;;;1.15;1.05;;;31.10;1.00;;;;;;5131540;28;20227;-60
2023/07/20 12:25:01;;;;;;;2.17;1.00;;;31.50;1.00;;;;;;5123632;28;20312;-60
2023/07/20 12:27:35;;;;;;;2.15;1.73;;;31.50;1.00;;;;;;5139403;28;20255;-62
2023/07/20 12:30:10;;;;;;;1.83;1.02;;;32.00;1.00;;;;;;5142061;28;20030;-61
2023/07/20 12:32:44;;;;;;;1.35;1.13;;;32.60;1.00;;;;;;5124697;28;20334;-60
2023/07/20 12:35:18;;;;;;;2.22;1.27;;;33.10;1.00;;;;;;5122968;28;20042;-61
2023/07/20 12:37:51;;;;;;;1.30;1.05;;;32.70;1.00;;;;;;5123355;28;20171;-60
2023/07/20 12:40:22;;;;;;;1.85;1.13;;;32.20;1.00;;;;;;5123567;28;20328;-60
2023/07/20 12:42:54;;;;;;;1.40;1.30;;;32.60;1.00;;;;;;5155624;28;20034;-61
2023/07/20 12:45:26;;;;;;;3.47;1.33;;;32.20;1.00;;;;;;5119971;28;20373;-60
2023/07/20 12:47:57;;;;;;;1.13;0.90;;;32.40;1.00;;;;;;5124004;28;20045;-61
2023/07/20 12:50:30;;;;;;;1.20;1.10;;;32.30;1.00;;;;;;5138605;28;20046;-59
2023/07/20 12:53:04;;;;;;;0.90;0.90;;;32.80;1.00;;;;;;5140238;28;20038;-59
2023/07/20 12:55:36;;;;;;;0.73;0.65;;;32.70;1.00;;;;;;5119417;28;20358;-63
2023/07/20 12:58:11;;;;;;;1.30;1.05;;;32.90;1.00;;;;;;5105624;28;20057;-60
2023/07/20 13:00:48;;;;;;;1.33;1.23;;;32.70;1.00;;;;;;5136091;28;20338;-63
2023/07/20 13:03:19;;;;;;;1.10;0.80;;;32.40;1.00;;;;;;5138870;28;20068;-60
2023/07/20 13:05:50;;;;;;;1.10;1.00;;;32.30;1.00;;;;;;5138718;28;20038;-60
2023/07/20 13:08:25;;;;;;;1.10;1.00;;;32.50;1.00;;;;;;5140160;28;20206;-60
2023/07/20 13:11:00;;;;;;;1.70;1.05;;;33.00;1.00;;;;;;5139576;28;20284;-61
2023/07/20 13:13:32;;;;;;;1.25;1.08;;;33.30;1.00;;;;;;5133804;28;20027;-60
2023/07/20 13:16:06;;;;;;;1.42;1.20;;;33.30;1.00;;;;;;5108383;28;20031;-66
2023/07/20 13:18:38;;;;;;;2.08;1.25;;;33.30;1.00;;;;;;5121732;28;20045;-63
2023/07/20 13:21:12;;;;;;;1.13;0.90;;;33.30;1.00;;;;;;5140304;28;20022;-60
2023/07/20 13:23:44;;;;;;;1.00;0.90;;;33.60;1.00;;;;;;5137969;28;20398;-60
2023/07/20 13:26:16;;;;;;;1.23;1.10;;;33.20;1.00;;;;;;5107699;28;20054;-60
2023/07/20 13:28:47;;;;;;;1.05;0.95;;;32.40;1.00;;;;;;5123016;28;20038;-60
2023/07/20 13:31:18;;;;;;;1.42;1.30;;;32.80;1.00;;;;;;5113861;28;20328;-59
2023/07/20 13:33:50;;;;;;;0.80;0.80;;;33.00;1.00;;;;;;5118983;28;20212;-62
2023/07/20 13:36:22;;;;;;;0.90;0.80;;;33.40;1.00;;;;;;5112504;28;20045;-63